createdAt,value
2018-08-17T00:00:03.056Z,3.53
2018-08-17T00:02:37.539Z,4.33
2018-08-17T00:05:11.437Z,4.28
2018-08-17T00:07:45.197Z,4.47
2018-08-17T00:10:19.019Z,6.47
2018-08-17T00:12:53.589Z,4.72
2018-08-17T00:15:27.398Z,4.03
2018-08-17T00:18:01.174Z,3.80
2018-08-17T00:20:35.035Z,4.03
2018-08-17T00:23:08.743Z,4.30
2018-08-17T00:25:43.252Z,4.50
2018-08-17T00:28:17.078Z,4.93
2018-08-17T00:30:50.872Z,5.53
2018-08-17T00:33:24.695Z,3.80
2018-08-17T00:35:59.315Z,4.32
2018-08-17T00:38:33.116Z,4.20
2018-08-17T00:41:07.599Z,3.70
2018-08-17T00:43:41.443Z,4.15
2018-08-17T00:46:16.029Z,6.05
2018-08-17T00:48:49.867Z,4.90
2018-08-17T00:51:23.621Z,4.10
2018-08-17T00:53:58.274Z,4.00
2018-08-17T00:56:32.692Z,4.32
2018-08-17T00:59:06.564Z,5.18
2018-08-17T01:01:41.758Z,6.10
2018-08-17T01:04:15.676Z,4.22
2018-08-17T01:06:50.288Z,4.40
2018-08-17T01:09:24.940Z,4.87
2018-08-17T01:11:58.746Z,4.20
2018-08-17T01:14:33.363Z,4.65
2018-08-17T01:17:07.296Z,4.23
2018-08-17T01:19:40.980Z,4.65
2018-08-17T01:22:14.825Z,4.10
2018-08-17T01:24:49.257Z,4.10
2018-08-17T01:27:23.157Z,4.43
2018-08-17T01:29:56.951Z,4.20
2018-08-17T01:32:30.715Z,3.97
2018-08-17T01:35:04.572Z,4.20
2018-08-17T01:37:38.379Z,4.22
2018-08-17T01:40:12.930Z,5.45
2018-08-17T01:42:47.571Z,4.07
2018-08-17T01:45:22.230Z,4.40
2018-08-17T01:47:56.832Z,4.07
2018-08-17T01:50:30.672Z,4.00
2018-08-17T01:53:04.408Z,4.50
2018-08-17T01:55:38.150Z,4.30
2018-08-17T01:58:12.557Z,4.03
2018-08-17T02:00:46.651Z,4.05
2018-08-17T02:03:20.452Z,4.95
2018-08-17T02:05:55.069Z,3.80
2018-08-17T02:08:29.605Z,7.00
2018-08-17T02:11:04.252Z,4.78
2018-08-17T02:13:37.879Z,4.25
2018-08-17T02:16:11.784Z,4.47
2018-08-17T02:18:45.628Z,5.97
2018-08-17T02:21:19.355Z,4.15
2018-08-17T02:23:53.897Z,4.00
2018-08-17T02:26:27.760Z,3.92
2018-08-17T02:29:01.414Z,4.25
2018-08-17T02:31:35.171Z,4.40
2018-08-17T02:34:08.972Z,5.05
2018-08-17T02:36:43.546Z,4.37
2018-08-17T02:39:17.392Z,4.20
2018-08-17T02:41:51.982Z,5.50
2018-08-17T02:44:25.773Z,5.43
2018-08-17T02:46:59.444Z,5.50
2018-08-17T02:49:33.298Z,5.28
2018-08-17T02:52:07.007Z,6.05
2018-08-17T02:54:40.720Z,5.43
2018-08-17T02:57:15.295Z,5.25
2018-08-17T02:59:49.152Z,5.00
2018-08-17T03:02:23.727Z,5.25
2018-08-17T03:04:57.650Z,4.47
2018-08-17T03:07:31.507Z,5.10
2018-08-17T03:10:05.364Z,5.15
2018-08-17T03:12:39.232Z,4.70
2018-08-17T03:15:13.157Z,7.37
2018-08-17T03:17:47.729Z,4.80
2018-08-17T03:20:21.612Z,5.82
2018-08-17T03:22:55.472Z,5.30
2018-08-17T03:25:29.188Z,4.50
2018-08-17T03:28:02.997Z,5.68
2018-08-17T03:30:36.953Z,5.05
2018-08-17T03:33:10.772Z,4.90
2018-08-17T03:35:44.668Z,6.12
2018-08-17T03:38:19.269Z,4.60
2018-08-17T03:40:52.997Z,6.50
2018-08-17T03:43:26.715Z,7.57
2018-08-17T03:46:00.596Z,5.45
2018-08-17T03:48:34.423Z,6.07
2018-08-17T03:51:08.255Z,5.62
2018-08-17T03:53:41.991Z,5.80
2018-08-17T03:56:16.620Z,5.10
2018-08-17T03:58:52.071Z,5.35
2018-08-17T04:01:25.852Z,4.87
2018-08-17T04:03:59.665Z,5.32
2018-08-17T04:06:33.323Z,7.10
2018-08-17T04:09:07.096Z,5.70
2018-08-17T04:11:40.807Z,6.05
2018-08-17T04:14:14.442Z,5.68
2018-08-17T04:16:48.207Z,5.00
2018-08-17T04:19:22.065Z,4.95
2018-08-17T04:21:55.924Z,4.60
2018-08-17T04:24:29.787Z,5.95
2018-08-17T04:27:04.360Z,6.43
2018-08-17T04:29:38.159Z,5.53
2018-08-17T04:32:11.959Z,7.50
2018-08-17T04:34:45.842Z,6.32
2018-08-17T04:37:19.717Z,5.03
2018-08-17T04:39:53.407Z,4.45
2018-08-17T04:42:27.953Z,4.75
2018-08-17T04:45:01.759Z,7.28
2018-08-17T04:47:36.271Z,5.40
2018-08-17T04:50:10.137Z,6.00
2018-08-17T04:52:43.976Z,5.95
2018-08-17T04:55:18.626Z,7.30
2018-08-17T04:57:52.468Z,5.95
2018-08-17T05:00:26.261Z,5.00
2018-08-17T05:02:59.931Z,6.22
2018-08-17T05:05:33.815Z,5.68
2018-08-17T05:08:08.409Z,6.43
2018-08-17T05:10:43.483Z,6.62
2018-08-17T05:13:19.313Z,6.22
2018-08-17T05:15:55.837Z,5.90
2018-08-17T05:18:30.427Z,9.23
2018-08-17T05:21:05.147Z,6.57
2018-08-17T05:23:39.713Z,7.53
2018-08-17T05:26:13.541Z,5.87
2018-08-17T05:28:48.331Z,6.03
2018-08-17T05:31:23.145Z,10.50
2018-08-17T05:33:57.034Z,7.22
2018-08-17T05:36:30.760Z,9.32
2018-08-17T05:39:04.599Z,5.87
2018-08-17T05:41:38.501Z,8.30
2018-08-17T05:44:12.317Z,5.85
2018-08-17T05:46:46.104Z,7.28
2018-08-17T05:49:20.819Z,9.57
2018-08-17T05:51:55.255Z,6.45
2018-08-17T05:54:29.096Z,6.27
2018-08-17T05:57:03.573Z,6.07
2018-08-17T05:59:38.229Z,8.98
2018-08-17T06:02:12.053Z,14.05
2018-08-17T06:04:45.844Z,16.10
2018-08-17T06:07:20.559Z,12.77
2018-08-17T06:09:54.378Z,5.50
2018-08-17T06:12:28.119Z,8.68
2018-08-17T06:15:01.940Z,6.30
2018-08-17T06:17:35.732Z,14.70
2018-08-17T06:20:09.582Z,13.60
2018-08-17T06:22:43.439Z,6.30
2018-08-17T06:25:17.281Z,10.05
2018-08-17T06:27:51.808Z,6.73
2018-08-17T06:30:26.400Z,8.25
2018-08-17T06:33:00.303Z,9.27
2018-08-17T06:35:34.877Z,6.13
2018-08-17T06:38:09.472Z,8.05
2018-08-17T06:40:43.256Z,8.60
2018-08-17T06:43:17.680Z,12.37
2018-08-17T06:45:52.425Z,7.62
2018-08-17T06:48:26.944Z,7.70
2018-08-17T06:51:00.976Z,9.93
2018-08-17T06:53:35.487Z,9.30
2018-08-17T06:56:09.307Z,14.63
2018-08-17T06:58:44.065Z,7.00
2018-08-17T07:01:17.971Z,7.00
2018-08-17T07:03:51.782Z,7.73
2018-08-17T07:06:25.413Z,7.47
2018-08-17T07:09:00.429Z,6.87
2018-08-17T07:11:35.017Z,10.10
2018-08-17T07:14:08.790Z,7.50
2018-08-17T07:16:42.695Z,14.77
2018-08-17T07:19:16.521Z,5.50
2018-08-17T07:21:50.217Z,8.00
2018-08-17T07:24:24.827Z,11.67
2018-08-17T07:26:59.470Z,6.03
2018-08-17T07:29:33.956Z,5.97
2018-08-17T07:32:08.723Z,8.03
2018-08-17T07:34:42.399Z,8.83
2018-08-17T07:37:16.959Z,6.57
2018-08-17T07:39:50.732Z,6.90
2018-08-17T07:42:24.608Z,7.67
2018-08-17T07:44:58.363Z,9.70
2018-08-17T07:47:32.202Z,8.37
2018-08-17T07:50:06.005Z,7.27
2018-08-17T07:52:40.633Z,10.57
2018-08-17T07:55:14.403Z,6.77
2018-08-17T07:57:49.046Z,9.73
2018-08-17T08:00:23.552Z,7.83
2018-08-17T08:02:57.284Z,9.20
2018-08-17T08:05:31.091Z,8.13
2018-08-17T08:08:04.932Z,11.40
2018-08-17T08:10:38.651Z,7.20
2018-08-17T08:13:12.296Z,10.03
2018-08-17T08:15:46.183Z,7.87
2018-08-17T08:18:20.691Z,7.33
2018-08-17T08:20:54.443Z,8.23
2018-08-17T08:23:29.149Z,6.13
2018-08-17T08:26:03.053Z,6.33
2018-08-17T08:28:36.801Z,9.60
2018-08-17T08:31:10.713Z,7.63
2018-08-17T08:33:44.364Z,8.93
2018-08-17T08:36:19.008Z,6.47
2018-08-17T08:38:53.639Z,8.10
2018-08-17T08:41:27.473Z,6.37
2018-08-17T08:44:24.278Z,6.70
2018-08-17T08:46:57.972Z,6.00
2018-08-17T08:49:32.457Z,8.07
2018-08-17T08:52:06.180Z,4.67
2018-08-17T08:54:39.816Z,5.83
2018-08-17T08:57:13.615Z,7.80
2018-08-17T08:59:47.495Z,6.80
2018-08-17T09:02:21.288Z,5.40
2018-08-17T09:04:55.144Z,7.33
2018-08-17T09:07:29.571Z,5.90
2018-08-17T09:10:03.471Z,5.93
2018-08-17T09:12:37.899Z,6.07
2018-08-17T09:15:11.592Z,6.47
2018-08-17T09:17:45.472Z,6.20
2018-08-17T09:20:19.334Z,6.23
2018-08-17T09:22:53.329Z,7.00
2018-08-17T09:25:27.028Z,6.57
2018-08-17T09:28:00.867Z,6.33
2018-08-17T09:30:34.619Z,5.50
2018-08-17T09:33:09.251Z,5.47
2018-08-17T09:35:42.840Z,5.00
2018-08-17T09:38:16.787Z,5.53
2018-08-17T09:40:51.463Z,5.47
2018-08-17T09:43:25.383Z,6.80
2018-08-17T09:45:59.924Z,8.10
2018-08-17T09:48:34.407Z,6.20
2018-08-17T09:51:08.865Z,5.27
2018-08-17T09:53:43.447Z,11.90
2018-08-17T09:56:17.211Z,6.37
2018-08-17T09:58:50.860Z,5.20
2018-08-17T10:01:24.759Z,5.00
2018-08-17T10:03:58.496Z,4.87
2018-08-17T10:06:32.226Z,5.50
2018-08-17T10:09:05.912Z,5.63
2018-08-17T10:11:40.334Z,5.27
2018-08-17T10:14:14.758Z,7.63
2018-08-17T10:16:48.583Z,5.27
2018-08-17T10:19:22.307Z,5.23
2018-08-17T10:21:56.853Z,5.50
2018-08-17T10:24:30.521Z,5.40
2018-08-17T10:27:04.335Z,5.40
2018-08-17T10:29:38.100Z,5.70
2018-08-17T10:32:11.963Z,9.03
2018-08-17T10:34:45.721Z,5.50
2018-08-17T10:37:20.200Z,5.03
2018-08-17T10:39:53.892Z,5.67
2018-08-17T10:42:27.785Z,5.30
2018-08-17T10:45:01.480Z,5.87
2018-08-17T10:47:35.241Z,5.23
2018-08-17T10:50:09.854Z,5.83
2018-08-17T10:52:43.746Z,5.90
2018-08-17T10:55:17.723Z,5.50
2018-08-17T10:57:51.838Z,7.03
2018-08-17T11:00:25.809Z,15.10
2018-08-17T11:03:00.363Z,4.80
2018-08-17T11:05:34.132Z,7.30
2018-08-17T11:08:08.700Z,7.33
2018-08-17T11:10:42.323Z,4.53
2018-08-17T11:13:16.081Z,5.10
2018-08-17T11:15:50.691Z,5.97
2018-08-17T11:18:24.452Z,5.10
2018-08-17T11:20:58.386Z,7.13
2018-08-17T11:23:32.052Z,5.23
2018-08-17T11:26:05.885Z,5.20
2018-08-17T11:28:39.700Z,5.63
2018-08-17T11:31:13.513Z,6.90
2018-08-17T11:33:47.350Z,5.73
2018-08-17T11:36:21.173Z,5.43
2018-08-17T11:38:56.747Z,4.53
2018-08-17T11:41:30.587Z,7.83
2018-08-17T11:44:04.156Z,6.00
2018-08-17T11:46:38.023Z,7.97
2018-08-17T11:49:11.911Z,5.43
2018-08-17T11:51:45.740Z,6.90
2018-08-17T11:54:20.302Z,8.23
2018-08-17T11:56:54.220Z,7.10
2018-08-17T11:59:28.792Z,5.07
2018-08-17T12:02:02.662Z,6.07
2018-08-17T12:04:36.423Z,9.20
2018-08-17T12:07:10.369Z,6.20
2018-08-17T12:09:44.222Z,7.00
2018-08-17T12:12:18.611Z,7.43
2018-08-17T12:14:53.118Z,4.70
2018-08-17T12:17:26.981Z,7.23
2018-08-17T12:20:01.601Z,5.10
2018-08-17T12:22:35.442Z,5.17
2018-08-17T12:25:10.212Z,5.30
2018-08-17T12:27:43.894Z,5.90
2018-08-17T12:30:18.544Z,6.47
2018-08-17T12:32:53.201Z,5.40
2018-08-17T12:35:26.927Z,5.87
2018-08-17T12:38:00.576Z,5.20
2018-08-17T12:40:34.328Z,6.87
2018-08-17T12:43:08.028Z,5.00
2018-08-17T12:45:41.729Z,6.63
2018-08-17T12:48:16.187Z,5.30
2018-08-17T12:50:49.993Z,5.40
2018-08-17T12:53:23.775Z,5.30
2018-08-17T12:55:57.566Z,4.80
2018-08-17T12:58:31.263Z,7.30
2018-08-17T13:01:05.032Z,5.50
2018-08-17T13:03:38.907Z,7.70
2018-08-17T13:06:12.747Z,5.27
2018-08-17T13:08:46.636Z,5.17
2018-08-17T13:11:21.292Z,6.10
2018-08-17T13:13:55.259Z,5.77
2018-08-17T13:16:29.750Z,6.83
2018-08-17T13:19:05.090Z,5.97
2018-08-17T13:21:38.881Z,6.07
2018-08-17T13:24:13.656Z,5.87
2018-08-17T13:26:48.180Z,5.93
2018-08-17T13:29:21.979Z,5.30
2018-08-17T13:31:55.767Z,5.83
2018-08-17T13:34:29.600Z,5.17
2018-08-17T13:37:03.440Z,19.07
2018-08-17T13:39:37.448Z,6.40
2018-08-17T13:42:11.376Z,6.10
2018-08-17T13:44:45.187Z,5.30
2018-08-17T13:47:18.780Z,5.63
2018-08-17T13:49:53.324Z,8.27
2018-08-17T13:52:27.100Z,5.93
2018-08-17T13:55:00.967Z,11.73
2018-08-17T13:57:34.620Z,6.67
2018-08-17T14:00:08.377Z,6.10
2018-08-17T14:02:42.123Z,8.83
2018-08-17T14:05:15.975Z,5.30
2018-08-17T14:07:49.701Z,6.20
2018-08-17T14:10:23.579Z,4.60
2018-08-17T14:12:57.404Z,5.53
2018-08-17T14:15:31.771Z,6.90
2018-08-17T14:18:05.601Z,5.30
2018-08-17T14:20:39.403Z,5.23
2018-08-17T14:23:13.177Z,6.43
2018-08-17T14:25:47.828Z,5.70
2018-08-17T14:28:21.745Z,6.73
2018-08-17T14:30:56.204Z,5.27
2018-08-17T14:33:30.090Z,6.53
2018-08-17T14:36:08.001Z,6.20
2018-08-17T14:38:41.743Z,9.47
2018-08-17T14:41:16.179Z,12.87
2018-08-17T14:43:49.883Z,9.70
2018-08-17T14:46:24.541Z,6.47
2018-08-17T14:48:59.041Z,6.20
2018-08-17T14:51:32.715Z,9.43
2018-08-17T14:54:06.369Z,11.50
2018-08-17T14:56:40.141Z,14.10
2018-08-17T14:59:13.832Z,51.30
2018-08-17T15:01:47.560Z,23.40
2018-08-17T15:04:22.044Z,7.40
2018-08-17T15:06:55.911Z,5.27
2018-08-17T15:09:30.478Z,5.63
2018-08-17T15:12:04.313Z,5.50
2018-08-17T15:14:38.818Z,5.20
2018-08-17T15:17:12.544Z,4.93
2018-08-17T15:19:46.942Z,7.10
2018-08-17T15:22:20.773Z,8.57
2018-08-17T15:24:54.440Z,5.80
2018-08-17T15:27:28.093Z,5.20
2018-08-17T15:30:02.674Z,5.00
2018-08-17T15:32:36.472Z,9.00
2018-08-17T15:35:10.227Z,7.60
2018-08-17T15:37:44.928Z,6.63
2018-08-17T15:40:19.572Z,4.40
2018-08-17T15:42:53.233Z,5.70
2018-08-17T15:45:30.211Z,5.87
2018-08-17T15:48:04.048Z,5.03
2018-08-17T15:50:38.580Z,4.73
2018-08-17T15:53:13.204Z,5.17
2018-08-17T15:55:46.954Z,9.03
2018-08-17T15:58:22.144Z,4.70
2018-08-17T16:00:55.959Z,4.93
2018-08-17T16:03:30.520Z,4.57
2018-08-17T16:06:05.694Z,4.63
2018-08-17T16:08:40.127Z,4.90
2018-08-17T16:11:13.855Z,4.40
2018-08-17T16:13:47.647Z,5.17
2018-08-17T16:16:22.341Z,7.20
2018-08-17T16:18:56.006Z,7.13
2018-08-17T16:21:30.585Z,8.40
2018-08-17T16:24:05.188Z,6.70
2018-08-17T16:26:38.942Z,6.20
2018-08-17T16:29:13.621Z,5.07
2018-08-17T16:31:48.187Z,5.20
2018-08-17T16:34:21.897Z,7.10
2018-08-17T16:36:56.374Z,4.60
2018-08-17T16:39:30.395Z,5.53
2018-08-17T16:42:04.573Z,6.60
2018-08-17T16:44:39.886Z,6.40
2018-08-17T16:47:14.493Z,8.37
2018-08-17T16:49:48.299Z,6.03
2018-08-17T16:52:22.184Z,7.57
2018-08-17T16:54:55.851Z,5.57
2018-08-17T16:57:29.665Z,9.83
2018-08-17T17:00:03.654Z,5.80
2018-08-17T17:02:37.523Z,6.57
2018-08-17T17:05:11.559Z,6.80
2018-08-17T17:07:45.718Z,7.23
2018-08-17T17:10:19.570Z,5.80
2018-08-17T17:12:53.203Z,6.63
2018-08-17T17:15:27.069Z,5.67
2018-08-17T17:18:01.653Z,5.87
2018-08-17T17:20:36.337Z,5.60
2018-08-17T17:23:10.152Z,5.77
2018-08-17T17:38:51.603Z,5.40
2018-08-17T17:41:25.463Z,5.60
2018-08-17T17:43:59.348Z,5.80
2018-08-17T17:46:33.096Z,5.97
2018-08-17T17:49:07.715Z,5.97
2018-08-17T17:51:41.483Z,5.90
2018-08-17T17:54:15.603Z,6.50
2018-08-17T17:56:49.456Z,6.13
2018-08-17T17:59:24.068Z,6.50
2018-08-17T18:01:57.810Z,9.00
2018-08-17T18:04:31.679Z,7.53
2018-08-17T18:07:05.545Z,10.03
2018-08-17T18:09:40.152Z,9.83
2018-08-17T18:12:15.396Z,8.20
2018-08-17T18:14:49.180Z,9.03
2018-08-17T18:17:23.029Z,9.23
2018-08-17T18:19:56.789Z,9.47
2018-08-17T18:22:30.661Z,9.27
2018-08-17T18:25:04.387Z,10.87
2018-08-17T18:27:38.128Z,10.03
2018-08-17T18:30:11.865Z,11.77
2018-08-17T18:32:46.420Z,10.80
2018-08-17T18:35:20.293Z,10.70
2018-08-17T18:37:54.076Z,10.33
2018-08-17T18:40:29.015Z,10.07
2018-08-17T18:43:02.645Z,10.77
2018-08-17T18:45:36.432Z,14.93
2018-08-17T18:48:11.056Z,11.33
2018-08-17T18:50:44.964Z,14.90
2018-08-17T18:53:18.745Z,10.63
2018-08-17T18:55:52.618Z,10.80
2018-08-17T18:58:26.332Z,11.10
2018-08-17T19:01:00.245Z,11.07
2018-08-17T19:03:34.133Z,10.63
2018-08-17T19:06:08.013Z,10.93
2018-08-17T19:08:41.795Z,11.60
2018-08-17T19:11:16.416Z,9.97
2018-08-17T19:13:50.927Z,9.20
2018-08-17T19:16:24.511Z,8.87
2018-08-17T19:18:58.389Z,9.10
2018-08-17T19:21:32.301Z,9.57
2018-08-17T19:24:06.155Z,9.17
2018-08-17T19:26:40.747Z,8.63
2018-08-17T19:29:14.508Z,9.07
2018-08-17T19:31:48.287Z,9.07
2018-08-17T19:34:22.175Z,8.43
2018-08-17T19:36:55.867Z,8.80
2018-08-17T19:39:29.739Z,8.40
2018-08-17T19:42:03.549Z,7.73
2018-08-17T19:44:38.139Z,8.00
2018-08-17T19:47:11.995Z,8.60
2018-08-17T19:49:45.811Z,9.43
2018-08-17T19:52:19.650Z,7.17
2018-08-17T19:54:53.450Z,7.70
2018-08-17T19:57:27.893Z,6.90
2018-08-17T20:00:01.745Z,6.80
2018-08-17T20:02:35.626Z,7.77
2018-08-17T20:05:09.371Z,7.27
2018-08-17T20:07:43.959Z,7.43
2018-08-17T20:10:17.751Z,8.57
2018-08-17T20:12:51.583Z,13.30
2018-08-17T20:15:25.340Z,8.53
2018-08-17T20:18:00.025Z,8.40
2018-08-17T20:20:33.809Z,9.47
2018-08-17T20:23:07.446Z,10.87
2018-08-17T20:25:41.200Z,10.47
2018-08-17T20:28:15.054Z,8.60
2018-08-17T20:30:48.741Z,8.23
2018-08-17T20:33:22.515Z,8.80
2018-08-17T20:35:56.284Z,9.50
2018-08-17T20:38:31.667Z,8.87
2018-08-17T20:41:05.461Z,9.33
2018-08-17T20:43:39.232Z,8.80
2018-08-17T20:46:13.036Z,12.10
2018-08-17T20:48:46.892Z,9.30
2018-08-17T20:51:20.859Z,9.57
2018-08-17T20:53:54.796Z,10.37
2018-08-17T20:56:28.619Z,9.87
2018-08-17T20:59:02.464Z,8.90
2018-08-17T21:01:36.248Z,9.37
2018-08-17T21:04:10.061Z,9.63
2018-08-17T21:06:43.873Z,10.90
2018-08-17T21:09:17.532Z,9.63
2018-08-17T21:11:52.066Z,10.53
2018-08-17T21:14:25.866Z,10.20
2018-08-17T21:16:59.833Z,10.47
2018-08-17T21:19:33.692Z,9.73
2018-08-17T21:22:07.574Z,11.17
2018-08-17T21:24:41.993Z,10.40
2018-08-17T21:27:15.767Z,11.37
2018-08-17T21:29:49.550Z,11.03
2018-08-17T21:32:23.356Z,9.90
2018-08-17T21:34:57.235Z,10.60
2018-08-17T21:37:31.232Z,9.37
2018-08-17T21:40:04.955Z,10.50
2018-08-17T21:42:40.334Z,11.73
2018-08-17T21:45:14.211Z,11.30
2018-08-17T21:47:48.834Z,10.73
2018-08-17T21:50:22.619Z,11.03
2018-08-17T21:52:56.347Z,11.10
2018-08-17T21:55:30.137Z,11.20
2018-08-17T21:58:04.027Z,11.27
2018-08-17T22:00:37.856Z,11.50
2018-08-17T22:03:11.673Z,15.43
2018-08-17T22:05:45.497Z,18.33
2018-08-17T22:08:20.013Z,32.43
2018-08-17T22:10:53.804Z,23.47
2018-08-17T22:13:28.425Z,15.63
2018-08-17T22:16:02.263Z,23.92
2018-08-17T22:18:36.803Z,22.62
2018-08-17T22:21:10.496Z,18.73
2018-08-17T22:23:44.301Z,21.30
2018-08-17T22:26:18.051Z,27.30
2018-08-17T22:28:51.886Z,26.92
2018-08-17T22:31:25.628Z,22.35
2018-08-17T22:34:00.288Z,24.95
2018-08-17T22:36:34.060Z,22.83
2018-08-17T22:39:08.529Z,24.77
2018-08-17T22:41:42.310Z,23.98
2018-08-17T22:44:16.107Z,21.98
2018-08-17T22:46:49.893Z,17.92
2018-08-17T22:49:24.365Z,18.05
2018-08-17T22:51:58.058Z,18.15
2018-08-17T22:54:32.707Z,18.10
2018-08-17T22:57:06.588Z,19.17
2018-08-17T22:59:40.544Z,18.12
2018-08-17T23:02:14.215Z,18.60
2018-08-17T23:04:48.072Z,17.90
2018-08-17T23:07:22.547Z,18.92
2018-08-17T23:09:56.371Z,18.73
2018-08-17T23:12:30.129Z,16.52
2018-08-17T23:15:03.908Z,17.50
2018-08-17T23:17:37.759Z,19.00
2018-08-17T23:20:12.270Z,18.17
2018-08-17T23:22:46.811Z,18.00
2018-08-17T23:25:20.606Z,17.10
2018-08-17T23:27:54.372Z,16.87
2018-08-17T23:30:28.135Z,17.83
2018-08-17T23:33:02.757Z,18.08
2018-08-17T23:35:36.649Z,20.15
2018-08-17T23:38:11.168Z,19.70
2018-08-17T23:40:45.043Z,20.10
2018-08-17T23:43:18.952Z,18.92
2018-08-17T23:45:53.547Z,19.75
2018-08-17T23:48:28.195Z,21.20
2018-08-17T23:51:01.938Z,20.27
2018-08-17T23:53:35.797Z,19.83
2018-08-17T23:56:10.336Z,20.00
2018-08-17T23:58:44.136Z,18.95
